sensor_id;sensor_type;location;lat;lon;timestamp;pressure;altitude;pressure_sealevel;temperature;humidity
74075;BME280;62428;51.412;5.432;2023-08-07T00:00:28;101230.44;;;12.97;100.00
74075;BME280;62428;51.412;5.432;2023-08-07T00:02:54;101231.22;;;12.97;100.00
74075;BME280;62428;51.412;5.432;2023-08-07T00:05:19;101232.34;;;12.96;100.00
74075;BME280;62428;51.412;5.432;2023-08-07T00:07:44;101229.63;;;12.96;100.00
74075;BME280;62428;51.412;5.432;2023-08-07T00:10:10;101229.63;;;12.96;100.00
74075;BME280;62428;51.412;5.432;2023-08-07T00:12:36;101232.03;;;12.98;100.00
74075;BME280;62428;51.412;5.432;2023-08-07T00:15:02;101227.44;;;12.98;100.00
74075;BME280;62428;51.412;5.432;2023-08-07T00:17:28;101227.16;;;13.00;100.00
74075;BME280;62428;51.412;5.432;2023-08-07T00:19:54;101238.72;;;13.00;100.00
74075;BME280;62428;51.412;5.432;2023-08-07T00:22:19;101236.03;;;13.00;100.00
74075;BME280;62428;51.412;5.432;2023-08-07T00:24:45;101226.31;;;12.99;100.00
74075;BME280;62428;51.412;5.432;2023-08-07T00:27:10;101233.34;;;13.00;100.00
74075;BME280;62428;51.412;5.432;2023-08-07T00:29:37;101238.44;;;13.02;100.00
74075;BME280;62428;51.412;5.432;2023-08-07T00:32:03;101236.81;;;13.01;100.00
74075;BME280;62428;51.412;5.432;2023-08-07T00:34:29;101243.53;;;13.03;100.00
74075;BME280;62428;51.412;5.432;2023-08-07T00:36:54;101238.13;;;13.03;100.00
74075;BME280;62428;51.412;5.432;2023-08-07T00:39:20;101241.63;;;13.04;100.00
74075;BME280;62428;51.412;5.432;2023-08-07T00:41:46;101244.81;;;13.06;100.00
74075;BME280;62428;51.412;5.432;2023-08-07T00:44:11;101245.13;;;13.04;100.00
74075;BME280;62428;51.412;5.432;2023-08-07T00:46:37;101249.44;;;13.05;100.00
74075;BME280;62428;51.412;5.432;2023-08-07T00:49:05;101245.91;;;13.05;100.00
74075;BME280;62428;51.412;5.432;2023-08-07T00:51:31;101251.81;;;13.07;100.00
74075;BME280;62428;51.412;5.432;2023-08-07T00:53:56;101251.81;;;13.07;100.00
74075;BME280;62428;51.412;5.432;2023-08-07T00:56:23;101253.41;;;13.08;100.00
74075;BME280;62428;51.412;5.432;2023-08-07T00:58:49;101248.81;;;13.08;100.00
74075;BME280;62428;51.412;5.432;2023-08-07T01:01:15;101251.22;;;13.10;100.00
74075;BME280;62428;51.412;5.432;2023-08-07T01:03:41;101250.41;;;13.10;100.00
74075;BME280;62428;51.412;5.432;2023-08-07T01:06:06;101245.03;;;13.10;100.00
74075;BME280;62428;51.412;5.432;2023-08-07T01:08:32;101252.03;;;13.11;100.00
74075;BME280;62428;51.412;5.432;2023-08-07T01:17:09;101253.63;;;13.12;100.00
74075;BME280;62428;51.412;5.432;2023-08-07T01:19:36;101262.50;;;13.12;100.00
74075;BME280;62428;51.412;5.432;2023-08-07T01:22:15;101263.63;;;13.11;100.00
74075;BME280;62428;51.412;5.432;2023-08-07T01:24:51;101262.81;;;13.11;100.00
74075;BME280;62428;51.412;5.432;2023-08-07T01:27:36;101260.13;;;13.11;100.00
74075;BME280;62428;51.412;5.432;2023-08-07T01:30:19;101259.59;;;13.08;100.00
74075;BME280;62428;51.412;5.432;2023-08-07T01:35:38;101260.72;;;13.07;100.00
74075;BME280;62428;51.412;5.432;2023-08-07T01:38:05;101258.81;;;13.08;100.00
74075;BME280;62428;51.412;5.432;2023-08-07T01:40:30;101257.22;;;13.07;100.00
74075;BME280;62428;51.412;5.432;2023-08-07T01:42:56;101266.09;;;13.07;100.00
74075;BME280;62428;51.412;5.432;2023-08-07T01:45:26;101264.50;;;13.06;100.00
74075;BME280;62428;51.412;5.432;2023-08-07T01:47:52;101268.31;;;13.05;100.00
74075;BME280;62428;51.412;5.432;2023-08-07T01:50:18;101273.69;;;13.05;100.00
74075;BME280;62428;51.412;5.432;2023-08-07T01:52:44;101288.47;;;13.08;100.00
74075;BME280;62428;51.412;5.432;2023-08-07T01:55:10;101278.81;;;13.07;100.00
74075;BME280;62428;51.412;5.432;2023-08-07T01:57:35;101289.06;;;13.05;100.00
74075;BME280;62428;51.412;5.432;2023-08-07T02:00:01;101297.75;;;13.02;100.00
74075;BME280;62428;51.412;5.432;2023-08-07T02:02:26;101295.38;;;13.00;100.00
74075;BME280;62428;51.412;5.432;2023-08-07T02:04:51;101285.16;;;12.97;100.00
74075;BME280;62428;51.412;5.432;2023-08-07T02:07:18;101284.94;;;12.94;100.00
74075;BME280;62428;51.412;5.432;2023-08-07T02:09:43;101289.06;;;12.91;100.00
74075;BME280;62428;51.412;5.432;2023-08-07T02:12:08;101286.66;;;12.89;100.00
74075;BME280;62428;51.412;5.432;2023-08-07T02:14:34;101284.25;;;12.88;100.00
74075;BME280;62428;51.412;5.432;2023-08-07T02:16:59;101290.13;;;12.90;100.00
74075;BME280;62428;51.412;5.432;2023-08-07T02:19:24;101283.16;;;12.89;100.00
74075;BME280;62428;51.412;5.432;2023-08-07T02:21:50;101289.34;;;12.89;100.00
74075;BME280;62428;51.412;5.432;2023-08-07T02:24:15;101296.63;;;12.89;100.00
74075;BME280;62428;51.412;5.432;2023-08-07T02:26:41;101296.63;;;12.89;100.00
74075;BME280;62428;51.412;5.432;2023-08-07T02:29:06;101298.50;;;12.88;100.00
74075;BME280;62428;51.412;5.432;2023-08-07T02:31:34;101295.03;;;12.88;100.00
74075;BME280;62428;51.412;5.432;2023-08-07T02:33:59;101284.25;;;12.88;100.00
74075;BME280;62428;51.412;5.432;2023-08-07T02:36:24;101288.56;;;12.89;100.00
74075;BME280;62428;51.412;5.432;2023-08-07T02:38:50;101293.94;;;12.89;100.00
74075;BME280;62428;51.412;5.432;2023-08-07T02:41:15;101295.53;;;12.90;100.00
74075;BME280;62428;51.412;5.432;2023-08-07T02:43:42;101293.13;;;12.88;100.00
74075;BME280;62428;51.412;5.432;2023-08-07T02:46:08;101286.94;;;12.88;100.00
74075;BME280;62428;51.412;5.432;2023-08-07T02:48:33;101287.72;;;12.88;100.00
74075;BME280;62428;51.412;5.432;2023-08-07T02:50:58;101293.13;;;12.88;100.00
74075;BME280;62428;51.412;5.432;2023-08-07T02:53:24;101276.16;;;12.88;100.00
74075;BME280;62428;51.412;5.432;2023-08-07T02:55:49;101280.75;;;12.87;100.00
74075;BME280;62428;51.412;5.432;2023-08-07T02:58:15;101286.16;;;12.87;100.00
74075;BME280;62428;51.412;5.432;2023-08-07T03:00:40;101284.25;;;12.88;100.00
74075;BME280;62428;51.412;5.432;2023-08-07T03:03:05;101278.84;;;12.88;100.00
74075;BME280;62428;51.412;5.432;2023-08-07T03:05:31;101276.44;;;12.86;100.00
74075;BME280;62428;51.412;5.432;2023-08-07T03:07:56;101274.84;;;12.85;100.00
74075;BME280;62428;51.412;5.432;2023-08-07T03:10:21;101276.72;;;12.85;100.00
74075;BME280;62428;51.412;5.432;2023-08-07T03:12:47;101278.34;;;12.86;100.00
74075;BME280;62428;51.412;5.432;2023-08-07T03:15:12;101278.34;;;12.86;100.00
74075;BME280;62428;51.412;5.432;2023-08-07T03:17:37;101287.22;;;12.86;100.00
74075;BME280;62428;51.412;5.432;2023-08-07T03:20:03;101285.34;;;12.87;100.00
74075;BME280;62428;51.412;5.432;2023-08-07T03:22:29;101280.75;;;12.87;100.00
74075;BME280;62428;51.412;5.432;2023-08-07T03:24:55;101283.16;;;12.89;100.00
74075;BME280;62428;51.412;5.432;2023-08-07T03:27:20;101286.66;;;12.89;100.00
74075;BME280;62428;51.412;5.432;2023-08-07T03:29:46;101279.34;;;12.90;100.00
74075;BME280;62428;51.412;5.432;2023-08-07T03:32:11;101281.75;;;12.92;100.00
74075;BME280;62428;51.412;5.432;2023-08-07T03:34:37;101274.44;;;12.92;100.00
74075;BME280;62428;51.412;5.432;2023-08-07T03:37:03;101285.78;;;12.94;100.00
74075;BME280;62428;51.412;5.432;2023-08-07T03:39:28;101276.06;;;12.93;100.00
74075;BME280;62428;51.412;5.432;2023-08-07T03:41:53;101276.56;;;12.95;100.00
74075;BME280;62428;51.412;5.432;2023-08-07T03:44:19;101277.69;;;12.94;100.00
74075;BME280;62428;51.412;5.432;2023-08-07T03:46:44;101275.78;;;12.95;100.00
74075;BME280;62428;51.412;5.432;2023-08-07T03:49:10;101274.97;;;12.94;100.00
74075;BME280;62428;51.412;5.432;2023-08-07T03:51:35;101277.69;;;12.94;100.00
74075;BME280;62428;51.412;5.432;2023-08-07T03:54:00;101273.88;;;12.95;100.00
74075;BME280;62428;51.412;5.432;2023-08-07T03:56:26;101276.56;;;12.95;100.00
74075;BME280;62428;51.412;5.432;2023-08-07T03:58:51;101271.97;;;12.96;100.00
74075;BME280;62428;51.412;5.432;2023-08-07T04:01:16;101278.47;;;12.95;100.00
74075;BME280;62428;51.412;5.432;2023-08-07T04:03:42;101277.34;;;12.96;100.00
74075;BME280;62428;51.412;5.432;2023-08-07T04:06:07;101280.06;;;12.96;100.00
74075;BME280;62428;51.412;5.432;2023-08-07T04:08:33;101274.66;;;12.96;100.00
74075;BME280;62428;51.412;5.432;2023-08-07T04:11:00;101280.06;;;12.96;100.00
74075;BME280;62428;51.412;5.432;2023-08-07T04:13:27;101281.66;;;12.97;100.00
74075;BME280;62428;51.412;5.432;2023-08-07T04:15:52;101289.75;;;12.97;100.00
74075;BME280;62428;51.412;5.432;2023-08-07T04:18:18;101278.19;;;12.96;100.00
74075;BME280;62428;51.412;5.432;2023-08-07T04:20:57;101283.28;;;12.98;100.00
74075;BME280;62428;51.412;5.432;2023-08-07T04:23:23;101280.06;;;12.96;100.00
74075;BME280;62428;51.412;5.432;2023-08-07T04:25:49;101292.75;;;12.95;100.00
74075;BME280;62428;51.412;5.432;2023-08-07T04:28:15;101293.88;;;12.94;100.00
74075;BME280;62428;51.412;5.432;2023-08-07T04:30:41;101298.44;;;12.94;100.00
74075;BME280;62428;51.412;5.432;2023-08-07T04:33:07;101303.53;;;12.95;100.00
74075;BME280;62428;51.412;5.432;2023-08-07T04:35:33;101295.44;;;12.95;100.00
74075;BME280;62428;51.412;5.432;2023-08-07T04:37:58;101304.31;;;12.96;100.00
74075;BME280;62428;51.412;5.432;2023-08-07T04:40:24;101315.13;;;12.96;100.00
74075;BME280;62428;51.412;5.432;2023-08-07T04:42:49;101315.13;;;12.96;100.00
74075;BME280;62428;51.412;5.432;2023-08-07T04:45:15;101318.63;;;12.96;100.00
74075;BME280;62428;51.412;5.432;2023-08-07T04:47:40;101315.13;;;12.96;100.00
74075;BME280;62428;51.412;5.432;2023-08-07T04:50:06;101317.03;;;12.95;100.00
74075;BME280;62428;51.412;5.432;2023-08-07T04:52:32;101310.03;;;12.94;100.00
74075;BME280;62428;51.412;5.432;2023-08-07T04:54:57;101307.34;;;12.94;100.00
74075;BME280;62428;51.412;5.432;2023-08-07T04:57:22;101311.63;;;12.95;100.00
74075;BME280;62428;51.412;5.432;2023-08-07T04:59:48;101305.94;;;12.97;100.00
74075;BME280;62428;51.412;5.432;2023-08-07T05:02:13;101313.25;;;12.96;100.00
74075;BME280;62428;51.412;5.432;2023-08-07T05:04:38;101307.84;;;12.96;100.00
74075;BME280;62428;51.412;5.432;2023-08-07T05:07:04;101308.63;;;12.97;100.00
74075;BME280;62428;51.412;5.432;2023-08-07T05:09:29;101315.66;;;12.98;100.00
74075;BME280;62428;51.412;5.432;2023-08-07T05:11:55;101310.25;;;12.98;100.00
74075;BME280;62428;51.412;5.432;2023-08-07T05:14:20;101324.25;;;13.00;100.00
74075;BME280;62428;51.412;5.432;2023-08-07T05:16:46;101320.72;;;12.99;100.00
74075;BME280;62428;51.412;5.432;2023-08-07T05:19:11;101313.44;;;13.00;100.00
74075;BME280;62428;51.412;5.432;2023-08-07T05:21:36;101329.31;;;13.01;100.00
74075;BME280;62428;51.412;5.432;2023-08-07T05:24:02;101332.31;;;13.00;100.00
74075;BME280;62428;51.412;5.432;2023-08-07T05:26:27;101335.81;;;13.00;100.00
74075;BME280;62428;51.412;5.432;2023-08-07T05:28:55;101326.94;;;13.00;100.00
74075;BME280;62428;51.412;5.432;2023-08-07T05:31:22;101333.91;;;13.01;100.00
74075;BME280;62428;51.412;5.432;2023-08-07T05:33:48;101339.31;;;13.01;100.00
74075;BME280;62428;51.412;5.432;2023-08-07T05:36:13;101338.00;;;12.98;100.00
74075;BME280;62428;51.412;5.432;2023-08-07T05:38:38;101343.13;;;13.00;100.00
74075;BME280;62428;51.412;5.432;2023-08-07T05:41:04;101345.81;;;13.00;100.00
74075;BME280;62428;51.412;5.432;2023-08-07T05:43:29;101347.69;;;12.99;100.00
74075;BME280;62428;51.412;5.432;2023-08-07T05:45:55;101350.88;;;13.01;100.00
74075;BME280;62428;51.412;5.432;2023-08-07T05:48:20;101347.09;;;13.02;100.00
74075;BME280;62428;51.412;5.432;2023-08-07T05:50:45;101359.81;;;13.02;100.00
74075;BME280;62428;51.412;5.432;2023-08-07T05:53:11;101357.09;;;13.02;100.00
74075;BME280;62428;51.412;5.432;2023-08-07T05:55:39;101363.00;;;13.04;100.00
74075;BME280;62428;51.412;5.432;2023-08-07T05:58:05;101358.09;;;13.06;100.00
74075;BME280;62428;51.412;5.432;2023-08-07T06:00:30;101364.00;;;13.08;100.00
74075;BME280;62428;51.412;5.432;2023-08-07T06:02:56;101359.13;;;13.10;100.00
74075;BME280;62428;51.412;5.432;2023-08-07T06:05:22;101365.00;;;13.12;100.00
74075;BME280;62428;51.412;5.432;2023-08-07T06:07:47;101372.03;;;13.13;100.00
74075;BME280;62428;51.412;5.432;2023-08-07T06:10:13;101372.81;;;13.14;100.00
74075;BME280;62428;51.412;5.432;2023-08-07T06:12:38;101363.63;;;13.15;100.00
74075;BME280;62428;51.412;5.432;2023-08-07T06:15:04;101376.50;;;13.18;100.00
74075;BME280;62428;51.412;5.432;2023-08-07T06:17:29;101376.22;;;13.19;100.00
74075;BME280;62428;51.412;5.432;2023-08-07T06:19:55;101378.63;;;13.21;100.00
74075;BME280;62428;51.412;5.432;2023-08-07T06:22:20;101374.03;;;13.21;100.00
74075;BME280;62428;51.412;5.432;2023-08-07T06:24:45;101375.63;;;13.22;100.00
74075;BME280;62428;51.412;5.432;2023-08-07T06:27:11;101378.03;;;13.24;100.00
74075;BME280;62428;51.412;5.432;2023-08-07T06:29:36;101378.53;;;13.26;100.00
74075;BME280;62428;51.412;5.432;2023-08-07T06:32:02;101379.34;;;13.26;100.00
74075;BME280;62428;51.412;5.432;2023-08-07T06:34:27;101382.53;;;13.28;100.00
74075;BME280;62428;51.412;5.432;2023-08-07T06:36:53;101392.47;;;13.33;100.00
74075;BME280;62428;51.412;5.432;2023-08-07T06:39:19;101394.28;;;13.38;100.00
74075;BME280;62428;51.412;5.432;2023-08-07T06:41:44;101396.09;;;13.42;100.00
74075;BME280;62428;51.412;5.432;2023-08-07T06:44:10;101406.03;;;13.47;100.00
74075;BME280;62428;51.412;5.432;2023-08-07T06:46:35;101394.03;;;13.53;100.00
74075;BME280;62428;51.412;5.432;2023-08-07T06:49:00;101398.00;;;13.56;99.82
74075;BME280;62428;51.412;5.432;2023-08-07T06:51:26;101408.22;;;13.59;98.35
74075;BME280;62428;51.412;5.432;2023-08-07T06:53:51;101407.63;;;13.62;99.40
74075;BME280;62428;51.412;5.432;2023-08-07T06:56:17;101408.63;;;13.66;100.00
74075;BME280;62428;51.412;5.432;2023-08-07T06:58:43;101396.94;;;13.71;100.00
74075;BME280;62428;51.412;5.432;2023-08-07T07:01:08;101409.84;;;13.74;99.35
74075;BME280;62428;51.412;5.432;2023-08-07T07:03:33;101400.34;;;13.76;98.45
74075;BME280;62428;51.412;5.432;2023-08-07T07:05:59;101405.97;;;13.80;98.52
74075;BME280;62428;51.412;5.432;2023-08-07T07:08:24;101416.66;;;13.85;97.77
74075;BME280;62428;51.412;5.432;2023-08-07T07:10:49;101423.88;;;13.90;98.04
74075;BME280;62428;51.412;5.432;2023-08-07T07:13:15;101413.56;;;13.92;96.50
74075;BME280;62428;51.412;5.432;2023-08-07T07:15:40;101414.53;;;13.96;97.60
74075;BME280;62428;51.412;5.432;2023-08-07T07:18:06;101423.66;;;14.00;96.85
74075;BME280;62428;51.412;5.432;2023-08-07T07:20:31;101426.53;;;14.03;96.21
74075;BME280;62428;51.412;5.432;2023-08-07T07:22:56;101423.25;;;14.07;95.86
74075;BME280;62428;51.412;5.432;2023-08-07T07:25:22;101430.47;;;14.11;95.38
74075;BME280;62428;51.412;5.432;2023-08-07T07:27:47;101427.63;;;14.16;94.62
74075;BME280;62428;51.412;5.432;2023-08-07T07:30:13;101431.38;;;14.20;94.46
74075;BME280;62428;51.412;5.432;2023-08-07T07:32:38;101424.25;;;14.25;93.69
74075;BME280;62428;51.412;5.432;2023-08-07T07:35:04;101433.84;;;14.31;93.79
74075;BME280;62428;51.412;5.432;2023-08-07T07:37:30;101437.56;;;14.35;92.68
74075;BME280;62428;51.412;5.432;2023-08-07T07:39:56;101448.56;;;14.38;92.85
74075;BME280;62428;51.412;5.432;2023-08-07T07:42:21;101449.84;;;14.41;92.85
74075;BME280;62428;51.412;5.432;2023-08-07T07:44:47;101454.16;;;14.42;92.13
74075;BME280;62428;51.412;5.432;2023-08-07T07:47:12;101459.56;;;14.42;91.35
74075;BME280;62428;51.412;5.432;2023-08-07T07:49:38;101469.28;;;14.43;90.33
74075;BME280;62428;51.412;5.432;2023-08-07T07:52:03;101460.06;;;14.44;92.33
74075;BME280;62428;51.412;5.432;2023-08-07T07:54:29;101464.84;;;14.47;91.26
74075;BME280;62428;51.412;5.432;2023-08-07T07:56:55;101466.38;;;14.53;91.67
74075;BME280;62428;51.412;5.432;2023-08-07T07:59:20;101457.44;;;14.67;90.60
74075;BME280;62428;51.412;5.432;2023-08-07T08:01:45;101461.75;;;15.04;90.39
74075;BME280;62428;51.412;5.432;2023-08-07T08:04:11;101472.34;;;15.37;89.13
74075;BME280;62428;51.412;5.432;2023-08-07T08:06:36;101471.94;;;15.52;86.04
74075;BME280;62428;51.412;5.432;2023-08-07T08:09:02;101475.25;;;15.72;86.99
74075;BME280;62428;51.412;5.432;2023-08-07T08:11:30;101478.41;;;15.97;84.63
74075;BME280;62428;51.412;5.432;2023-08-07T08:13:55;101474.22;;;16.22;83.00
74075;BME280;62428;51.412;5.432;2023-08-07T08:16:20;101480.84;;;16.56;83.16
74075;BME280;62428;51.412;5.432;2023-08-07T08:18:46;101477.53;;;16.94;80.30
74075;BME280;62428;51.412;5.432;2023-08-07T08:21:11;101484.56;;;17.29;78.52
74075;BME280;62428;51.412;5.432;2023-08-07T08:23:36;101486.91;;;17.57;75.75
74075;BME280;62428;51.412;5.432;2023-08-07T08:26:02;101486.84;;;17.83;76.16
74075;BME280;62428;51.412;5.432;2023-08-07T08:28:27;101482.13;;;18.10;74.06
74075;BME280;62428;51.412;5.432;2023-08-07T08:30:53;101484.44;;;18.29;70.81
74075;BME280;62428;51.412;5.432;2023-08-07T08:33:18;101488.31;;;18.49;69.92
74075;BME280;62428;51.412;5.432;2023-08-07T08:35:43;101485.66;;;18.61;67.86
74075;BME280;62428;51.412;5.432;2023-08-07T08:38:09;101480.63;;;18.72;67.65
74075;BME280;62428;51.412;5.432;2023-08-07T08:40:35;101492.25;;;18.60;68.59
74075;BME280;62428;51.412;5.432;2023-08-07T08:43:04;101493.63;;;18.46;67.58
74075;BME280;62428;51.412;5.432;2023-08-07T08:45:30;101499.38;;;18.14;67.37
74075;BME280;62428;51.412;5.432;2023-08-07T08:48:02;101497.06;;;17.95;69.75
74075;BME280;62428;51.412;5.432;2023-08-07T08:50:28;101497.97;;;18.08;70.87
74075;BME280;62428;51.412;5.432;2023-08-07T08:52:55;101492.19;;;18.10;70.63
74075;BME280;62428;51.412;5.432;2023-08-07T08:55:21;101501.31;;;18.05;67.82
74075;BME280;62428;51.412;5.432;2023-08-07T08:57:47;101506.06;;;17.87;68.07
74075;BME280;62428;51.412;5.432;2023-08-07T09:00:14;101508.44;;;17.80;70.10
74075;BME280;62428;51.412;5.432;2023-08-07T09:02:51;101508.41;;;17.97;69.28
74075;BME280;62428;51.412;5.432;2023-08-07T09:05:18;101512.00;;;18.19;66.32
74075;BME280;62428;51.412;5.432;2023-08-07T09:07:45;101516.66;;;18.10;63.75
74075;BME280;62428;51.412;5.432;2023-08-07T09:10:12;101517.03;;;17.99;64.34
74075;BME280;62428;51.412;5.432;2023-08-07T09:12:40;101520.03;;;18.06;64.72
74075;BME280;62428;51.412;5.432;2023-08-07T09:15:08;101514.69;;;18.28;65.15
74075;BME280;62428;51.412;5.432;2023-08-07T09:17:39;101518.25;;;18.49;65.71
74075;BME280;62428;51.412;5.432;2023-08-07T09:20:06;101518.13;;;18.67;64.59
74075;BME280;62428;51.412;5.432;2023-08-07T09:22:35;101526.06;;;18.80;62.07
74075;BME280;62428;51.412;5.432;2023-08-07T09:25:01;101520.69;;;18.93;63.78
74075;BME280;62428;51.412;5.432;2023-08-07T09:27:26;101521.84;;;18.92;62.52
74075;BME280;62428;51.412;5.432;2023-08-07T09:29:54;101528.03;;;18.71;62.79
74075;BME280;62428;51.412;5.432;2023-08-07T09:32:19;101519.03;;;18.50;64.72
74075;BME280;62428;51.412;5.432;2023-08-07T09:34:48;101520.13;;;18.28;65.63
74075;BME280;62428;51.412;5.432;2023-08-07T09:37:14;101518.84;;;18.25;65.97
74075;BME280;62428;51.412;5.432;2023-08-07T09:39:40;101516.56;;;18.27;64.84
74075;BME280;62428;51.412;5.432;2023-08-07T09:42:13;101519.22;;;18.44;66.70
74075;BME280;62428;51.412;5.432;2023-08-07T09:44:40;101519.47;;;18.60;64.24
74075;BME280;62428;51.412;5.432;2023-08-07T09:47:16;101534.41;;;18.75;63.90
74075;BME280;62428;51.412;5.432;2023-08-07T09:49:43;101532.16;;;18.77;60.46
74075;BME280;62428;51.412;5.432;2023-08-07T09:52:10;101536.91;;;18.59;61.99
74075;BME280;62428;51.412;5.432;2023-08-07T09:54:36;101529.69;;;18.34;62.79
74075;BME280;62428;51.412;5.432;2023-08-07T09:57:03;101537.50;;;18.35;62.79
74075;BME280;62428;51.412;5.432;2023-08-07T09:59:28;101542.06;;;18.52;63.07
74075;BME280;62428;51.412;5.432;2023-08-07T10:01:57;101545.34;;;18.67;61.78
74075;BME280;62428;51.412;5.432;2023-08-07T10:04:25;101547.69;;;18.86;62.52
74075;BME280;62428;51.412;5.432;2023-08-07T10:06:51;101551.72;;;19.00;62.18
74075;BME280;62428;51.412;5.432;2023-08-07T10:09:16;101547.16;;;19.13;60.62
74075;BME280;62428;51.412;5.432;2023-08-07T10:11:42;101545.28;;;19.26;61.74
74075;BME280;62428;51.412;5.432;2023-08-07T10:14:12;101548.47;;;19.28;59.48
74075;BME280;62428;51.412;5.432;2023-08-07T10:16:38;101547.59;;;19.15;61.04
74075;BME280;62428;51.412;5.432;2023-08-07T10:19:06;101552.84;;;18.99;61.70
74075;BME280;62428;51.412;5.432;2023-08-07T10:21:33;101558.72;;;18.80;60.88
74075;BME280;62428;51.412;5.432;2023-08-07T10:24:03;101558.88;;;18.84;59.96
74075;BME280;62428;51.412;5.432;2023-08-07T10:26:29;101550.44;;;18.98;59.86
74075;BME280;62428;51.412;5.432;2023-08-07T10:28:55;101556.56;;;19.16;60.19
74075;BME280;62428;51.412;5.432;2023-08-07T10:31:22;101557.56;;;19.32;59.43
74075;BME280;62428;51.412;5.432;2023-08-07T10:33:48;101555.84;;;19.28;58.65
74075;BME280;62428;51.412;5.432;2023-08-07T10:36:16;101559.47;;;19.11;58.09
74075;BME280;62428;51.412;5.432;2023-08-07T10:38:42;101559.34;;;19.07;57.86
74075;BME280;62428;51.412;5.432;2023-08-07T10:41:09;101571.44;;;18.97;58.73
74075;BME280;62428;51.412;5.432;2023-08-07T10:43:39;101569.00;;;18.75;60.62
74075;BME280;62428;51.412;5.432;2023-08-07T10:46:06;101571.94;;;18.61;61.04
74075;BME280;62428;51.412;5.432;2023-08-07T10:48:39;101571.38;;;18.76;62.48
74075;BME280;62428;51.412;5.432;2023-08-07T10:51:05;101573.06;;;18.98;62.26
74075;BME280;62428;51.412;5.432;2023-08-07T10:53:35;101568.88;;;19.22;57.96
74075;BME280;62428;51.412;5.432;2023-08-07T10:56:05;101573.84;;;19.41;57.97
74075;BME280;62428;51.412;5.432;2023-08-07T10:58:37;101587.84;;;19.52;56.76
74075;BME280;62428;51.412;5.432;2023-08-07T11:03:40;101589.59;;;19.90;57.30
74075;BME280;62428;51.412;5.432;2023-08-07T11:06:05;101588.81;;;20.02;60.09
74075;BME280;62428;51.412;5.432;2023-08-07T11:08:31;101574.44;;;20.13;55.23
74075;BME280;62428;51.412;5.432;2023-08-07T11:10:57;101579.78;;;20.34;53.75
74075;BME280;62428;51.412;5.432;2023-08-07T11:13:29;101580.56;;;20.35;55.41
74075;BME280;62428;51.412;5.432;2023-08-07T11:15:54;101581.56;;;20.18;55.73
74075;BME280;62428;51.412;5.432;2023-08-07T11:18:22;101582.13;;;19.99;56.23
74075;BME280;62428;51.412;5.432;2023-08-07T11:20:48;101583.13;;;19.94;56.77
74075;BME280;62428;51.412;5.432;2023-08-07T11:23:13;101586.53;;;20.04;57.07
74075;BME280;62428;51.412;5.432;2023-08-07T11:25:39;101571.81;;;20.17;57.26
74075;BME280;62428;51.412;5.432;2023-08-07T11:28:04;101577.47;;;20.24;56.48
74075;BME280;62428;51.412;5.432;2023-08-07T11:30:30;101577.03;;;20.10;56.80
74075;BME280;62428;51.412;5.432;2023-08-07T11:32:56;101581.75;;;19.88;58.51
74075;BME280;62428;51.412;5.432;2023-08-07T11:35:22;101584.91;;;19.78;59.91
74075;BME280;62428;51.412;5.432;2023-08-07T11:37:48;101576.63;;;19.87;58.43
74075;BME280;62428;51.412;5.432;2023-08-07T11:40:13;101579.41;;;19.99;58.44
74075;BME280;62428;51.412;5.432;2023-08-07T11:42:40;101587.38;;;20.16;58.99
74075;BME280;62428;51.412;5.432;2023-08-07T11:45:06;101581.03;;;20.37;58.62
74075;BME280;62428;51.412;5.432;2023-08-07T11:47:32;101583.53;;;20.54;58.02
74075;BME280;62428;51.412;5.432;2023-08-07T11:49:58;101577.16;;;20.50;54.26
74075;BME280;62428;51.412;5.432;2023-08-07T11:52:24;101580.09;;;20.33;55.35
74075;BME280;62428;51.412;5.432;2023-08-07T11:54:50;101573.72;;;20.16;56.98
74075;BME280;62428;51.412;5.432;2023-08-07T11:57:19;101579.94;;;19.92;58.16
74075;BME280;62428;51.412;5.432;2023-08-07T11:59:50;101572.13;;;19.70;59.07
74075;BME280;62428;51.412;5.432;2023-08-07T12:02:15;101570.44;;;19.44;58.49
74075;BME280;62428;51.412;5.432;2023-08-07T12:04:41;101583.59;;;19.21;60.55
74075;BME280;62428;51.412;5.432;2023-08-07T12:07:06;101585.19;;;19.01;61.74
74075;BME280;62428;51.412;5.432;2023-08-07T12:09:36;101586.75;;;18.81;61.96
74075;BME280;62428;51.412;5.432;2023-08-07T12:12:02;101594.97;;;18.63;64.96
74075;BME280;62428;51.412;5.432;2023-08-07T12:14:29;101598.25;;;18.48;68.30
74075;BME280;62428;51.412;5.432;2023-08-07T12:16:55;101591.59;;;18.37;68.90
74075;BME280;62428;51.412;5.432;2023-08-07T12:19:20;101598.66;;;18.29;69.66
74075;BME280;62428;51.412;5.432;2023-08-07T12:21:45;101598.84;;;18.24;70.46
74075;BME280;62428;51.412;5.432;2023-08-07T12:24:12;101599.66;;;18.16;73.35
74075;BME280;62428;51.412;5.432;2023-08-07T12:26:38;101598.72;;;18.03;72.98
74075;BME280;62428;51.412;5.432;2023-08-07T12:29:03;101594.59;;;17.97;74.53
74075;BME280;62428;51.412;5.432;2023-08-07T12:31:29;101595.69;;;17.96;75.72
74075;BME280;62428;51.412;5.432;2023-08-07T12:33:54;101595.19;;;18.11;77.38
74075;BME280;62428;51.412;5.432;2023-08-07T12:36:20;101586.81;;;18.25;76.01
74075;BME280;62428;51.412;5.432;2023-08-07T12:38:45;101579.91;;;18.36;73.52
74075;BME280;62428;51.412;5.432;2023-08-07T12:41:11;101592.00;;;18.56;74.19
74075;BME280;62428;51.412;5.432;2023-08-07T12:43:36;101585.47;;;18.78;69.76
74075;BME280;62428;51.412;5.432;2023-08-07T12:46:02;101591.28;;;18.98;68.27
74075;BME280;62428;51.412;5.432;2023-08-07T12:48:27;101590.41;;;19.15;65.32
74075;BME280;62428;51.412;5.432;2023-08-07T12:50:53;101582.34;;;19.18;67.58